Aviation Digital Data Service (ADDS)

Output produced by METARs form (1115 UTC 24 April 2017)
found at http://www.aviationweather.gov/adds/metars/
 
TAF LOXA 240815Z 2409/2418 04007KT 9999 FEW045
       
LOWG 241050Z 15004KT 070V230 9999 FEW050 13/01 Q1019 NOSIG
TAF LOWG 240515Z 2406/2506 VRB02KT 9999 FEW050 BKN060 TX16/2415Z TN01/2406Z 
     TEMPO 2411/2417 21008G18KT
       
LOWI 241050Z VRB04KT 9999 FEW070 15/03 Q1015 NOSIG
TAF LOWI 240515Z 2406/2506 27007KT CAVOK TX18/2415Z TN02/2504Z 
     BECMG 2409/2411 09007KT 9999 FEW070 SCT300 
     TEMPO 2412/2419 11015G27KT 
     BECMG 2419/2421 27004KT 
     BECMG 2502/2504 27009KT
       
LOWK 241050Z VRB04KT 9999 FEW050 15/03 Q1018 NOSIG
TAF LOWK 240515Z 2406/2506 VRB02KT 9999 FEW040 BKN055 TX15/2415Z TN05/2406Z 
     TEMPO 2411/2417 23010KT FEW050 SCT070
       
LOWL 241050Z 16004KT 090V220 CAVOK 11/M02 Q1018 NOSIG
TAF LOWL 240515Z 2406/2506 08005KT CAVOK TX15/2415Z TN02/2406Z 
     TEMPO 2409/2415 12008KT 9999 FEW050 SCT300
       
LOWS 241050Z VRB02KT CAVOK 13/01 Q1017 NOSIG
TAF LOWS 240515Z 2406/2506 15005KT CAVOK TX15/2415Z TN01/2406Z 
     TEMPO 2410/2418 04008KT
       
LOWW 241050Z 16010KT 110V220 9999 FEW048 12/M00 Q1019 NOSIG
TAF LOWW 240515Z 2406/2512 25005KT CAVOK TX20/2412Z TN05/2406Z 
     BECMG 2407/2409 16012KT 
     TEMPO 2414/2419 18016KT 
     TEMPO 2501/2506 14005KT
       
TAF LOXT 240815Z 2409/2418 VRB03KT 9999 FEW050 
     BECMG 2409/2411 06006KT
       
LOAV 241100Z 09008KT 40KM FEW050CU SCT300CI 12/00
TAF AMD LOAV 240953Z 2409/2418 12015KT 9999 FEW050 
     TEMPO 2412/2418 18015G25KT
       
LOAN 241100Z 12008KT 45KM FEW050CU SCT120AC
TAF LOAN 240800Z 2409/2418 03005KT 9999 FEW050 SCT120 
     BECMG 2409/2411 16008KT 
     TEMPO 2412/2418 18010G20KT
       
TAF LOXN 240815Z 2409/2418 VRB05KT 9999 FEW050 SCT300 
     BECMG 2409/2411 18008G20KT
       
LOXZ 241050Z 20005KT 40KM FEW045CU SCT230CI 13/00 Q1017 NOSIG
TAF LOXZ 240815Z 2409/2418 VRB03KT 9999 FEW045 
     TEMPO 2410/2417 20010KT